createdAt,value
2022-12-18T00:04:28.423Z,11.65
2022-12-18T00:09:40.213Z,11.21
2022-12-18T00:14:40.723Z,12.81
2022-12-18T00:19:47.581Z,11.47
2022-12-18T00:24:53.808Z,11.63
2022-12-18T00:30:00.130Z,10.62
2022-12-18T00:35:06.332Z,10.23
2022-12-18T00:40:12.681Z,9.83
2022-12-18T00:45:18.923Z,9.30
2022-12-18T00:50:27.039Z,9.78
2022-12-18T00:55:33.431Z,10.48
2022-12-18T01:00:41.215Z,10.28
2022-12-18T01:05:46.988Z,10.66
2022-12-18T01:10:55.693Z,10.16
2022-12-18T01:16:01.543Z,10.81
2022-12-18T01:21:07.857Z,10.15
2022-12-18T01:26:14.202Z,10.23
2022-12-18T01:31:20.583Z,10.01
2022-12-18T01:36:26.837Z,9.87
2022-12-18T01:41:35.034Z,11.20
2022-12-18T01:46:41.269Z,9.24
2022-12-18T01:51:48.854Z,12.03
2022-12-18T01:56:57.560Z,9.71
2022-12-18T02:02:03.146Z,8.14
2022-12-18T02:07:09.255Z,8.35
2022-12-18T02:12:16.680Z,8.16
2022-12-18T02:17:23.121Z,8.17
2022-12-18T02:22:29.839Z,8.08
2022-12-18T02:27:36.211Z,8.93
2022-12-18T02:32:42.607Z,8.06
2022-12-18T02:37:51.392Z,7.76
2022-12-18T02:42:57.349Z,7.55
2022-12-18T02:48:03.864Z,8.48
2022-12-18T02:53:10.284Z,9.04
2022-12-18T02:58:16.746Z,8.33
2022-12-18T03:03:23.209Z,8.49
2022-12-18T03:08:29.507Z,9.09
2022-12-18T03:13:36.103Z,8.84
2022-12-18T03:18:42.071Z,10.05
2022-12-18T03:23:49.901Z,13.20
2022-12-18T03:28:55.156Z,9.38
2022-12-18T03:34:01.433Z,9.63
2022-12-18T03:39:07.700Z,8.61
2022-12-18T03:44:14.202Z,8.35
2022-12-18T03:49:20.544Z,8.03
2022-12-18T03:54:26.855Z,8.49
2022-12-18T03:59:33.132Z,8.22
2022-12-18T04:04:39.632Z,8.00
2022-12-18T04:09:45.898Z,8.85
2022-12-18T04:14:52.408Z,9.28
2022-12-18T04:19:58.733Z,8.44
2022-12-18T04:25:05.178Z,7.73
2022-12-18T04:30:11.481Z,9.51
2022-12-18T04:35:18.118Z,7.93
2022-12-18T04:40:25.825Z,7.12
2022-12-18T04:45:32.221Z,8.31
2022-12-18T04:50:40.782Z,8.27
2022-12-18T04:55:47.014Z,7.75
2022-12-18T05:00:53.344Z,7.48
2022-12-18T05:05:59.687Z,7.95
2022-12-18T05:11:05.946Z,7.37
2022-12-18T05:16:12.390Z,7.80
2022-12-18T05:21:19.054Z,7.25
2022-12-18T05:26:25.397Z,6.59
2022-12-18T05:31:38.902Z,7.53
2022-12-18T05:36:39.922Z,8.25
2022-12-18T05:41:47.223Z,7.55
2022-12-18T05:46:53.748Z,7.94
2022-12-18T05:52:00.030Z,7.04
2022-12-18T05:57:06.358Z,7.60
2022-12-18T06:02:12.875Z,7.33
2022-12-18T06:07:19.188Z,8.13
2022-12-18T06:12:25.465Z,8.05
2022-12-18T06:17:31.781Z,8.02
2022-12-18T06:22:38.234Z,7.83
2022-12-18T06:27:44.569Z,9.02
2022-12-18T06:32:56.347Z,9.58
2022-12-18T06:37:57.896Z,8.01
2022-12-18T06:43:04.163Z,7.89
2022-12-18T06:48:11.609Z,7.30
2022-12-18T06:53:17.790Z,8.23
2022-12-18T06:58:24.254Z,8.69
2022-12-18T07:03:30.507Z,8.84
2022-12-18T07:08:36.877Z,9.24
2022-12-18T07:13:43.460Z,7.70
2022-12-18T07:18:49.131Z,8.38
2022-12-18T07:23:57.623Z,8.64
2022-12-18T07:29:04.238Z,7.65
2022-12-18T07:34:10.586Z,7.04
2022-12-18T07:39:30.552Z,7.55
2022-12-18T07:44:30.765Z,7.59
2022-12-18T07:49:36.922Z,7.98
2022-12-18T07:54:46.505Z,8.32
2022-12-18T07:59:51.975Z,7.80
2022-12-18T08:05:00.950Z,7.95
2022-12-18T08:10:09.959Z,8.30
2022-12-18T08:15:16.747Z,8.42
2022-12-18T08:20:23.190Z,8.72
2022-12-18T08:25:42.607Z,8.88
2022-12-18T08:30:34.979Z,8.49
2022-12-18T08:35:45.619Z,7.69
2022-12-18T08:40:50.632Z,8.56
2022-12-18T08:45:50.230Z,8.76
2022-12-18T08:51:06.300Z,8.34
2022-12-18T08:56:03.060Z,8.16
2022-12-18T09:01:10.030Z,8.89
2022-12-18T09:06:18.134Z,8.49
2022-12-18T09:11:25.985Z,8.05
2022-12-18T09:16:33.300Z,8.29
2022-12-18T09:21:48.218Z,8.77
2022-12-18T09:26:40.434Z,8.92
2022-12-18T09:31:46.479Z,8.41
2022-12-18T09:36:52.688Z,9.26
2022-12-18T09:41:59.036Z,9.21
2022-12-18T09:47:05.279Z,9.14
2022-12-18T09:52:11.777Z,8.33
2022-12-18T09:57:18.074Z,9.34
2022-12-18T10:02:24.583Z,8.31
2022-12-18T10:07:32.333Z,8.37
2022-12-18T10:12:39.180Z,8.27
2022-12-18T10:17:45.715Z,8.80
2022-12-18T10:22:52.954Z,8.45
2022-12-18T10:28:02.933Z,8.61
2022-12-18T10:33:09.523Z,7.96
2022-12-18T10:38:15.971Z,7.98
2022-12-18T10:43:22.703Z,7.29
2022-12-18T10:48:29.187Z,6.10
2022-12-18T10:53:35.592Z,7.98
2022-12-18T10:58:45.307Z,7.67
2022-12-18T11:04:00.302Z,8.70
2022-12-18T11:09:00.983Z,7.09
2022-12-18T11:14:11.243Z,8.29
2022-12-18T11:19:19.908Z,7.31
2022-12-18T11:24:25.194Z,9.19
2022-12-18T11:29:31.513Z,7.52
2022-12-18T11:34:38.154Z,8.89
2022-12-18T11:39:47.623Z,7.69
2022-12-18T11:44:55.383Z,8.26
2022-12-18T11:50:04.675Z,8.77
2022-12-18T11:55:10.868Z,8.55
2022-12-18T12:00:17.298Z,8.18
2022-12-18T12:05:23.103Z,8.76
2022-12-18T12:10:29.507Z,9.35
2022-12-18T12:15:36.192Z,9.18
2022-12-18T12:20:42.547Z,9.61
2022-12-18T12:25:50.755Z,10.19
2022-12-18T12:30:58.339Z,11.06
2022-12-18T12:36:04.732Z,10.05
2022-12-18T12:41:11.413Z,9.62
2022-12-18T12:46:27.021Z,10.44
2022-12-18T12:51:24.569Z,10.25
2022-12-18T12:56:30.880Z,9.75
2022-12-18T13:01:37.179Z,11.58
2022-12-18T13:06:44.681Z,10.40
2022-12-18T13:11:53.677Z,10.66
2022-12-18T13:16:57.437Z,11.86
2022-12-18T13:22:04.729Z,13.10
2022-12-18T13:27:11.168Z,10.70
2022-12-18T13:32:19.905Z,10.02
2022-12-18T13:37:23.522Z,9.52
2022-12-18T13:42:30.316Z,10.72
2022-12-18T13:47:36.618Z,9.01
2022-12-18T13:52:42.885Z,11.00
2022-12-18T13:57:49.344Z,10.56
2022-12-18T14:02:55.831Z,11.30
2022-12-18T14:08:02.098Z,11.58
2022-12-18T14:13:08.991Z,11.36
2022-12-18T14:18:16.504Z,10.82
2022-12-18T14:23:25.170Z,11.36
2022-12-18T14:28:31.335Z,10.05
2022-12-18T14:33:38.947Z,10.80
2022-12-18T14:38:45.584Z,11.98
2022-12-18T14:43:53.222Z,11.27
2022-12-18T14:48:58.603Z,10.43
2022-12-18T14:54:04.879Z,11.83
2022-12-18T14:59:11.375Z,10.97
2022-12-18T15:04:17.650Z,12.35
2022-12-18T15:09:24.072Z,11.71
2022-12-18T15:14:30.351Z,10.85
2022-12-18T15:19:36.657Z,11.32
2022-12-18T15:24:43.086Z,12.57
2022-12-18T15:29:49.361Z,13.11
2022-12-18T15:35:04.200Z,13.35
2022-12-18T15:40:00.645Z,13.60
2022-12-18T15:45:06.896Z,13.19
2022-12-18T15:50:13.277Z,13.20
2022-12-18T15:55:19.696Z,14.58
2022-12-18T16:00:25.998Z,13.92
2022-12-18T16:05:32.365Z,13.50
2022-12-18T16:10:38.849Z,15.18
2022-12-18T16:15:45.105Z,13.50
2022-12-18T16:20:51.592Z,24.64
2022-12-18T16:25:57.939Z,14.93
2022-12-18T16:31:05.476Z,14.04
2022-12-18T16:36:15.714Z,12.97
2022-12-18T16:41:22.799Z,14.51
2022-12-18T16:46:29.302Z,14.70
2022-12-18T16:51:35.742Z,13.43
2022-12-18T16:56:43.225Z,15.54
2022-12-18T17:01:49.678Z,15.16
2022-12-18T17:06:55.872Z,14.42
2022-12-18T17:12:04.413Z,13.51
2022-12-18T17:17:20.758Z,13.59
2022-12-18T17:22:13.945Z,15.03
2022-12-18T17:27:20.222Z,16.75
2022-12-18T17:32:27.733Z,14.91
2022-12-18T17:37:35.059Z,15.46
2022-12-18T17:42:41.556Z,14.63
2022-12-18T17:47:47.925Z,13.91
2022-12-18T17:52:54.316Z,15.60
2022-12-18T17:58:00.664Z,13.44
2022-12-18T18:03:07.225Z,14.99
2022-12-18T18:08:14.569Z,16.04
2022-12-18T18:13:20.832Z,16.45
2022-12-18T18:18:27.179Z,14.76
2022-12-18T18:23:33.660Z,16.62
2022-12-18T18:28:40.012Z,17.18
2022-12-18T18:33:46.225Z,17.21
2022-12-18T18:38:53.588Z,17.41
2022-12-18T18:43:59.819Z,16.51
2022-12-18T18:49:06.706Z,13.11
2022-12-18T18:54:15.473Z,16.32
2022-12-18T18:59:24.451Z,16.98
2022-12-18T19:04:27.603Z,17.08
2022-12-18T19:09:33.982Z,16.66
2022-12-18T19:14:41.501Z,17.07
2022-12-18T19:19:49.179Z,17.23
2022-12-18T19:24:54.378Z,16.94
2022-12-18T19:30:00.759Z,17.80
2022-12-18T19:35:07.058Z,18.56
2022-12-18T19:40:20.464Z,18.20
2022-12-18T19:45:15.615Z,16.96
2022-12-18T19:50:23.707Z,17.27
2022-12-18T19:55:29.938Z,16.88
2022-12-18T20:00:41.365Z,16.86
2022-12-18T20:05:36.408Z,17.82
2022-12-18T20:10:43.802Z,16.94
2022-12-18T20:15:51.397Z,16.39
2022-12-18T20:20:59.106Z,17.67
2022-12-18T20:26:04.371Z,16.90
2022-12-18T20:31:10.513Z,16.64
2022-12-18T20:36:17.105Z,15.80
2022-12-18T20:41:23.916Z,17.69
2022-12-18T20:46:30.162Z,15.17
2022-12-18T20:51:36.440Z,16.86
2022-12-18T20:56:42.722Z,17.15
2022-12-18T21:01:49.493Z,16.55
2022-12-18T21:07:00.709Z,18.68
2022-12-18T21:12:00.753Z,17.01
2022-12-18T21:17:07.154Z,17.12
2022-12-18T21:22:13.891Z,17.02
2022-12-18T21:27:20.201Z,17.24
2022-12-18T21:32:26.576Z,17.31
2022-12-18T21:37:32.455Z,17.99
2022-12-18T21:42:38.811Z,16.30
2022-12-18T21:47:45.153Z,18.28
2022-12-18T21:52:51.441Z,18.05
2022-12-18T21:57:57.752Z,18.07
2022-12-18T22:03:17.743Z,17.95
2022-12-18T22:08:09.975Z,18.54
2022-12-18T22:13:16.416Z,17.85
2022-12-18T22:18:25.588Z,18.25
2022-12-18T22:23:31.939Z,17.11
2022-12-18T22:28:38.194Z,17.76
2022-12-18T22:33:44.494Z,17.34
2022-12-18T22:38:50.874Z,18.29
2022-12-18T22:43:56.713Z,18.93
2022-12-18T22:49:03.236Z,17.70
2022-12-18T22:54:09.609Z,19.67
2022-12-18T22:59:15.928Z,18.74
2022-12-18T23:04:22.321Z,18.83
2022-12-18T23:09:28.085Z,17.40
2022-12-18T23:14:34.443Z,18.25
2022-12-18T23:19:45.445Z,18.97
2022-12-18T23:24:46.660Z,20.45
2022-12-18T23:29:55.290Z,16.69
2022-12-18T23:35:00.536Z,16.82
2022-12-18T23:40:06.921Z,18.91
2022-12-18T23:45:18.033Z,17.86
2022-12-18T23:50:19.066Z,17.51
2022-12-18T23:55:24.991Z,17.91
